createdAt,value
2019-05-06T00:00:17.792Z,27.93
2019-05-06T00:02:48.247Z,23.57
2019-05-06T00:05:17.341Z,26.05
2019-05-06T00:07:53.808Z,27.73
2019-05-06T00:10:24.552Z,25.23
2019-05-06T00:12:54.253Z,35.33
2019-05-06T00:15:24.672Z,30.93
2019-05-06T00:17:54.045Z,33.83
2019-05-06T00:20:24.341Z,35.43
2019-05-06T00:22:55.128Z,37.23
2019-05-06T00:25:41.636Z,38.80
2019-05-06T00:28:24.536Z,42.97
2019-05-06T00:31:09.615Z,44.50
2019-05-06T00:33:28.381Z,45.07
2019-05-06T00:36:00.217Z,40.87
2019-05-06T00:38:27.789Z,36.20
2019-05-06T00:41:14.430Z,37.13
2019-05-06T00:43:56.485Z,28.90
2019-05-06T00:46:25.588Z,28.27
2019-05-06T00:48:54.440Z,29.20
2019-05-06T00:51:24.271Z,27.40
2019-05-06T00:54:00.852Z,26.93
2019-05-06T00:56:29.739Z,23.87
2019-05-06T00:58:59.348Z,21.80
2019-05-06T01:01:29.826Z,24.10
2019-05-06T01:03:58.658Z,25.40
2019-05-06T01:06:27.569Z,22.00
2019-05-06T01:08:56.440Z,26.97
2019-05-06T01:11:26.368Z,44.88
2019-05-06T01:13:56.576Z,47.65
2019-05-06T01:16:25.464Z,49.70
2019-05-06T01:18:54.456Z,40.97
2019-05-06T01:21:29.343Z,37.87
2019-05-06T01:23:58.484Z,28.85
2019-05-06T01:26:27.373Z,29.60
2019-05-06T01:28:56.567Z,27.80
2019-05-06T01:31:40.577Z,28.33
2019-05-06T01:34:04.095Z,28.63
2019-05-06T01:36:34.331Z,23.97
2019-05-06T01:39:26.831Z,33.53
2019-05-06T01:42:06.392Z,24.90
2019-05-06T01:44:35.995Z,20.73
2019-05-06T01:47:06.204Z,26.00
2019-05-06T01:49:35.518Z,25.57
2019-05-06T01:52:05.624Z,24.07
2019-05-06T01:54:34.940Z,22.35
2019-05-06T01:57:04.392Z,23.80
2019-05-06T01:59:34.203Z,25.20
2019-05-06T02:02:06.603Z,19.10
2019-05-06T02:04:37.306Z,25.25
2019-05-06T02:07:06.940Z,24.80
2019-05-06T02:09:36.155Z,27.83
2019-05-06T02:12:06.359Z,24.25
2019-05-06T02:14:38.329Z,26.50
2019-05-06T02:17:07.103Z,26.10
2019-05-06T02:19:36.913Z,23.00
2019-05-06T02:22:08.469Z,29.48
2019-05-06T02:24:38.992Z,27.57
2019-05-06T02:27:07.781Z,25.60
2019-05-06T02:29:43.343Z,27.30
2019-05-06T02:32:25.612Z,26.33
2019-05-06T02:34:54.317Z,28.03
2019-05-06T02:37:38.593Z,30.95
2019-05-06T02:40:25.282Z,24.23
2019-05-06T02:42:55.168Z,25.10
2019-05-06T02:45:25.226Z,24.57
2019-05-06T02:48:13.906Z,24.27
2019-05-06T02:50:44.909Z,24.72
2019-05-06T02:53:15.227Z,30.00
2019-05-06T02:55:44.533Z,25.08
2019-05-06T02:58:14.811Z,28.47
2019-05-06T03:00:43.437Z,29.40
2019-05-06T03:03:14.075Z,33.23
2019-05-06T03:05:44.020Z,30.07
2019-05-06T03:08:13.697Z,33.00
2019-05-06T03:10:44.100Z,31.17
2019-05-06T03:13:19.139Z,32.63
2019-05-06T03:15:48.962Z,32.20
2019-05-06T03:18:17.643Z,33.07
2019-05-06T03:20:59.823Z,35.73
2019-05-06T03:23:35.170Z,30.60
2019-05-06T03:26:06.960Z,29.82
2019-05-06T03:28:36.753Z,32.77
2019-05-06T03:31:08.018Z,25.80
2019-05-06T03:33:55.131Z,27.15
2019-05-06T03:36:22.724Z,26.90
2019-05-06T03:38:42.862Z,25.00
2019-05-06T03:41:10.085Z,21.80
2019-05-06T03:43:38.973Z,23.47
2019-05-06T03:46:09.218Z,25.05
2019-05-06T03:48:45.460Z,32.40
2019-05-06T03:51:14.353Z,28.93
2019-05-06T03:53:44.161Z,28.77
2019-05-06T03:56:18.879Z,31.10
2019-05-06T03:58:45.024Z,30.27
2019-05-06T04:01:15.245Z,34.73
2019-05-06T04:03:51.365Z,31.87
2019-05-06T04:06:14.463Z,25.83
2019-05-06T04:08:43.925Z,32.35
2019-05-06T04:11:13.724Z,33.17
2019-05-06T04:13:43.798Z,32.00
2019-05-06T04:16:17.685Z,39.38
2019-05-06T04:18:48.532Z,31.20
2019-05-06T04:21:19.045Z,24.37
2019-05-06T04:23:53.358Z,31.13
2019-05-06T04:26:24.123Z,29.23
2019-05-06T04:28:53.524Z,30.23
2019-05-06T04:31:22.918Z,28.38
2019-05-06T04:34:08.441Z,27.63
2019-05-06T04:36:23.924Z,26.40
2019-05-06T04:38:54.002Z,30.13
2019-05-06T04:41:26.520Z,27.93
2019-05-06T04:43:53.546Z,32.37
2019-05-06T04:46:23.619Z,29.55
2019-05-06T04:48:54.663Z,25.62
2019-05-06T04:51:24.752Z,25.83
2019-05-06T04:53:53.899Z,29.30
2019-05-06T04:56:23.678Z,29.92
2019-05-06T04:58:53.783Z,27.53
2019-05-06T05:01:23.458Z,24.95
2019-05-06T05:03:54.018Z,29.03
2019-05-06T05:06:23.188Z,23.73
2019-05-06T05:08:53.288Z,26.27
2019-05-06T05:11:24.372Z,37.78
2019-05-06T05:13:54.806Z,46.63
2019-05-06T05:16:24.920Z,42.37
2019-05-06T05:18:55.343Z,44.67
2019-05-06T05:21:23.924Z,36.70
2019-05-06T05:23:53.583Z,28.80
2019-05-06T05:26:22.666Z,27.45
2019-05-06T05:28:53.248Z,23.57
2019-05-06T05:31:23.026Z,19.52
2019-05-06T05:33:52.647Z,22.83
2019-05-06T05:36:23.219Z,18.98
2019-05-06T05:38:52.390Z,28.30
2019-05-06T05:41:23.327Z,18.62
2019-05-06T05:44:09.424Z,16.32
2019-05-06T05:46:38.309Z,23.77
2019-05-06T05:49:08.549Z,18.97
2019-05-06T05:51:37.190Z,23.65
2019-05-06T05:54:06.846Z,23.77
2019-05-06T05:56:36.241Z,18.53
2019-05-06T05:59:06.335Z,16.36
2019-05-06T06:01:35.227Z,17.87
2019-05-06T06:04:05.753Z,14.58
2019-05-06T06:06:34.333Z,15.13
2019-05-06T06:09:03.437Z,24.77
2019-05-06T06:11:34.620Z,20.77
2019-05-06T06:14:07.972Z,20.80
2019-05-06T06:16:45.840Z,15.13
2019-05-06T06:19:18.967Z,21.57
2019-05-06T06:21:49.078Z,14.38
2019-05-06T06:24:28.397Z,20.83
2019-05-06T06:26:56.916Z,19.37
2019-05-06T06:29:26.406Z,20.55
2019-05-06T06:32:05.563Z,20.00
2019-05-06T06:34:35.685Z,16.23
2019-05-06T06:37:15.919Z,14.88
2019-05-06T06:39:46.515Z,12.47
2019-05-06T06:42:15.301Z,12.80
2019-05-06T06:44:44.143Z,12.43
2019-05-06T06:47:13.135Z,13.43
2019-05-06T06:49:42.388Z,13.35
2019-05-06T06:52:14.769Z,13.17
2019-05-06T06:54:43.816Z,9.85
2019-05-06T06:57:34.348Z,11.00
2019-05-06T07:00:39.833Z,11.97
2019-05-06T07:03:12.135Z,12.85
2019-05-06T07:05:42.418Z,11.17
2019-05-06T07:08:12.708Z,8.23
2019-05-06T07:10:43.327Z,9.33
2019-05-06T07:13:13.783Z,7.27
2019-05-06T07:15:42.955Z,9.40
2019-05-06T07:18:13.441Z,8.60
2019-05-06T07:20:46.588Z,7.40
2019-05-06T07:23:32.665Z,10.82
2019-05-06T07:26:03.094Z,9.20
2019-05-06T07:28:32.668Z,5.65
2019-05-06T07:31:17.393Z,11.45
2019-05-06T07:33:33.493Z,7.58
2019-05-06T07:36:02.840Z,6.78
2019-05-06T07:38:32.723Z,7.45
2019-05-06T07:41:04.707Z,7.53
2019-05-06T07:43:52.598Z,8.87
2019-05-06T07:46:30.014Z,5.20
2019-05-06T07:48:58.828Z,6.90
2019-05-06T07:51:27.725Z,6.80
2019-05-06T07:53:56.604Z,7.92
2019-05-06T07:56:25.496Z,8.67
2019-05-06T07:58:55.628Z,9.78
2019-05-06T08:01:26.146Z,8.60
2019-05-06T08:03:54.925Z,7.12
2019-05-06T08:06:23.634Z,9.10
2019-05-06T08:08:53.664Z,8.75
2019-05-06T08:11:25.855Z,9.93
2019-05-06T08:13:53.050Z,12.13
2019-05-06T08:16:22.659Z,8.48
2019-05-06T08:18:52.480Z,13.32
2019-05-06T08:21:23.499Z,9.93
2019-05-06T08:23:53.208Z,9.30
2019-05-06T08:26:22.585Z,9.48
2019-05-06T08:28:52.706Z,6.95
2019-05-06T08:31:22.765Z,10.27
2019-05-06T08:33:52.365Z,11.57
2019-05-06T08:36:25.952Z,10.32
2019-05-06T08:39:02.911Z,8.97
2019-05-06T08:41:33.175Z,10.75
2019-05-06T08:44:02.839Z,10.68
2019-05-06T08:46:32.896Z,11.55
2019-05-06T08:49:03.196Z,6.97
2019-05-06T08:51:43.062Z,12.15
2019-05-06T08:54:32.356Z,10.87
2019-05-06T08:57:02.459Z,13.17
2019-05-06T08:59:32.087Z,8.78
2019-05-06T09:02:03.158Z,9.33
2019-05-06T09:04:32.156Z,7.75
2019-05-06T09:07:02.968Z,6.73
2019-05-06T09:09:32.621Z,11.50
2019-05-06T09:12:02.685Z,8.28
2019-05-06T09:14:32.628Z,5.35
2019-05-06T09:17:02.803Z,11.05
2019-05-06T09:19:33.139Z,7.60
2019-05-06T09:22:02.618Z,10.20
2019-05-06T09:24:32.599Z,9.27
2019-05-06T09:27:03.102Z,7.30
2019-05-06T09:29:39.207Z,8.93
2019-05-06T09:32:15.107Z,12.78
2019-05-06T09:34:52.738Z,10.43
2019-05-06T09:37:23.990Z,9.53
2019-05-06T09:39:53.446Z,8.18
2019-05-06T09:42:23.061Z,8.57
2019-05-06T09:44:54.078Z,6.37
2019-05-06T09:47:29.971Z,7.63
2019-05-06T09:49:58.898Z,10.93
2019-05-06T09:52:27.716Z,11.22
2019-05-06T09:55:14.500Z,8.68
2019-05-06T09:57:47.860Z,8.03
2019-05-06T10:03:06.121Z,10.03
2019-05-06T10:05:34.944Z,11.80
2019-05-06T10:08:03.824Z,7.30
2019-05-06T10:10:32.894Z,10.10
2019-05-06T10:13:02.813Z,9.50
2019-05-06T10:15:32.676Z,7.37
2019-05-06T10:18:07.526Z,10.05
2019-05-06T10:20:38.975Z,7.83
2019-05-06T10:23:07.757Z,12.50
2019-05-06T10:25:38.611Z,6.58
2019-05-06T10:28:12.475Z,9.40
2019-05-06T10:30:40.893Z,8.23
2019-05-06T10:33:17.171Z,7.47
2019-05-06T10:35:46.040Z,12.87
2019-05-06T10:38:16.365Z,11.28
2019-05-06T10:41:00.129Z,7.92
2019-05-06T10:43:18.340Z,8.17
2019-05-06T10:45:47.148Z,8.50
2019-05-06T10:48:15.727Z,8.23
2019-05-06T10:50:46.258Z,12.53
2019-05-06T10:53:19.453Z,6.57
2019-05-06T10:55:56.204Z,10.90
2019-05-06T10:58:25.094Z,14.20
2019-05-06T11:01:07.824Z,8.43
2019-05-06T11:03:37.008Z,13.00
2019-05-06T11:06:05.736Z,7.25
2019-05-06T11:08:34.534Z,7.60
2019-05-06T11:11:14.932Z,7.78
2019-05-06T11:13:33.167Z,9.90
2019-05-06T11:16:03.347Z,10.10
2019-05-06T11:18:33.405Z,11.03
2019-05-06T11:21:03.405Z,6.72
2019-05-06T11:23:33.789Z,9.68
2019-05-06T11:26:03.230Z,10.10
2019-05-06T11:28:48.685Z,11.12
2019-05-06T11:31:22.968Z,11.00
2019-05-06T11:33:57.053Z,9.00
2019-05-06T11:36:46.037Z,8.70
2019-05-06T11:39:14.615Z,14.80
2019-05-06T11:41:59.585Z,7.65
2019-05-06T11:44:13.708Z,11.93
2019-05-06T11:46:43.028Z,11.57
2019-05-06T11:49:12.559Z,11.13
2019-05-06T11:51:43.541Z,11.43
2019-05-06T11:54:17.496Z,11.57
2019-05-06T11:56:50.810Z,10.10
2019-05-06T11:59:14.321Z,8.30
2019-05-06T12:01:44.966Z,8.70
2019-05-06T12:04:14.015Z,7.70
2019-05-06T12:06:43.449Z,13.48
2019-05-06T12:09:16.521Z,9.60
2019-05-06T12:11:43.341Z,8.88
2019-05-06T12:14:12.530Z,9.23
2019-05-06T12:16:41.577Z,9.78
2019-05-06T12:19:12.890Z,8.70
2019-05-06T12:21:42.929Z,8.37
2019-05-06T12:24:12.252Z,7.47
2019-05-06T12:26:42.945Z,9.53
2019-05-06T12:29:12.669Z,9.43
2019-05-06T12:31:42.258Z,10.15
2019-05-06T12:34:12.494Z,6.90
2019-05-06T12:36:42.726Z,6.15
2019-05-06T12:39:18.573Z,8.57
2019-05-06T12:41:53.251Z,9.73
2019-05-06T12:44:23.096Z,11.00
2019-05-06T12:47:05.388Z,6.78
2019-05-06T12:49:34.588Z,7.87
2019-05-06T12:52:04.113Z,8.95
2019-05-06T12:54:33.624Z,8.43
2019-05-06T12:57:03.498Z,7.78
2019-05-06T12:59:32.092Z,9.53
2019-05-06T13:02:02.732Z,8.83
2019-05-06T13:04:50.183Z,9.70
2019-05-06T13:07:03.050Z,8.98
2019-05-06T13:09:33.174Z,9.88
2019-05-06T13:12:03.713Z,6.90
2019-05-06T13:14:33.240Z,6.03
2019-05-06T13:17:02.778Z,8.30
2019-05-06T13:19:32.731Z,11.30
2019-05-06T13:22:03.733Z,9.67
2019-05-06T13:24:32.587Z,8.80
2019-05-06T13:27:02.540Z,9.35
2019-05-06T13:29:35.597Z,10.50
2019-05-06T13:32:03.625Z,10.60
2019-05-06T13:34:33.357Z,9.15
2019-05-06T13:37:03.750Z,4.95
2019-05-06T13:39:33.199Z,7.47
2019-05-06T13:42:02.362Z,6.33
2019-05-06T13:44:32.022Z,8.05
2019-05-06T13:47:02.955Z,9.67
2019-05-06T13:49:33.734Z,9.55
2019-05-06T13:52:05.177Z,9.03
2019-05-06T13:54:34.911Z,12.53
2019-05-06T13:57:04.417Z,11.57
2019-05-06T13:59:35.346Z,7.37
2019-05-06T14:02:17.025Z,14.45
2019-05-06T14:04:45.615Z,7.45
2019-05-06T14:07:14.393Z,7.47
2019-05-06T14:09:43.785Z,9.90
2019-05-06T14:12:12.476Z,9.30
2019-05-06T14:14:43.163Z,11.22
2019-05-06T14:17:12.799Z,10.67
2019-05-06T14:19:42.883Z,8.15
2019-05-06T14:22:12.630Z,8.30
2019-05-06T14:24:44.191Z,12.53
2019-05-06T14:27:14.627Z,14.20
2019-05-06T14:29:44.736Z,10.70
2019-05-06T14:32:14.803Z,11.27
2019-05-06T14:34:43.579Z,12.50
2019-05-06T14:37:12.277Z,6.90
2019-05-06T14:39:53.336Z,12.15
2019-05-06T14:42:13.018Z,12.07
2019-05-06T14:44:43.248Z,10.58
2019-05-06T14:47:18.944Z,8.53
2019-05-06T14:49:47.420Z,10.73
2019-05-06T14:52:15.982Z,13.70
2019-05-06T14:54:53.194Z,9.07
2019-05-06T14:57:22.946Z,13.20
2019-05-06T14:59:55.248Z,11.00
2019-05-06T15:02:26.089Z,8.87
2019-05-06T15:04:53.993Z,15.68
2019-05-06T15:07:22.578Z,9.40
2019-05-06T15:10:02.559Z,9.40
2019-05-06T15:12:22.895Z,14.33
2019-05-06T15:14:52.890Z,10.30
2019-05-06T15:17:23.043Z,17.13
2019-05-06T15:19:52.563Z,9.80
2019-05-06T15:22:22.502Z,6.37
2019-05-06T15:24:53.745Z,7.57
2019-05-06T15:27:22.756Z,10.87
2019-05-06T15:29:53.957Z,9.30
2019-05-06T15:32:24.313Z,7.95
2019-05-06T15:35:02.512Z,10.60
2019-05-06T15:37:33.853Z,9.15
2019-05-06T15:40:05.234Z,13.55
2019-05-06T15:42:34.410Z,11.93
2019-05-06T15:45:05.120Z,13.20
2019-05-06T15:47:33.623Z,8.78
2019-05-06T15:50:02.724Z,10.38
2019-05-06T15:52:33.582Z,9.60
2019-05-06T15:55:03.388Z,11.22
2019-05-06T15:57:32.849Z,9.65
2019-05-06T16:00:02.597Z,12.33
2019-05-06T16:02:33.919Z,9.60
2019-05-06T16:05:11.282Z,10.75
2019-05-06T16:07:36.991Z,11.18
2019-05-06T16:10:04.835Z,14.63
2019-05-06T16:12:33.910Z,8.88
2019-05-06T16:15:02.707Z,12.78
2019-05-06T16:17:32.859Z,10.15
2019-05-06T16:20:02.773Z,10.93
2019-05-06T16:22:33.662Z,7.80
2019-05-06T16:25:13.181Z,9.68
2019-05-06T16:27:44.051Z,14.85
2019-05-06T16:30:14.280Z,12.80
2019-05-06T16:32:43.277Z,7.90
2019-05-06T16:35:14.244Z,8.38
2019-05-06T16:37:42.882Z,10.68
2019-05-06T16:40:12.406Z,11.40
2019-05-06T16:42:46.024Z,8.63
2019-05-06T16:45:14.574Z,12.00
2019-05-06T16:47:44.737Z,11.53
2019-05-06T16:50:15.616Z,7.97
2019-05-06T16:52:45.526Z,9.03
2019-05-06T16:55:24.251Z,7.87
2019-05-06T16:58:02.430Z,10.95
2019-05-06T17:00:34.227Z,8.30
2019-05-06T17:03:07.398Z,10.28
2019-05-06T17:05:38.639Z,13.40
2019-05-06T17:08:07.224Z,8.08
2019-05-06T17:10:35.805Z,13.03
2019-05-06T17:13:06.943Z,8.86
2019-05-06T17:15:36.165Z,17.57
2019-05-06T17:18:06.287Z,14.68
2019-05-06T17:20:35.564Z,12.18
2019-05-06T17:23:06.297Z,10.30
2019-05-06T17:25:34.873Z,8.25
2019-05-06T17:28:14.414Z,8.85
2019-05-06T17:30:50.833Z,10.53
2019-05-06T17:33:34.416Z,9.07
2019-05-06T17:36:04.857Z,10.38
2019-05-06T17:38:38.241Z,10.20
2019-05-06T17:41:07.219Z,9.10
2019-05-06T17:43:40.516Z,11.15
2019-05-06T17:46:07.001Z,18.62
2019-05-06T17:48:37.276Z,8.38
2019-05-06T17:51:13.040Z,13.98
2019-05-06T17:53:43.340Z,9.23
2019-05-06T17:56:12.777Z,12.10
2019-05-06T17:58:42.521Z,9.90
2019-05-06T18:01:14.125Z,11.48
2019-05-06T18:03:43.000Z,13.20
2019-05-06T18:06:14.172Z,14.65
2019-05-06T18:08:43.307Z,16.27
2019-05-06T18:11:12.910Z,11.90
2019-05-06T18:13:43.299Z,11.22
2019-05-06T18:16:13.215Z,9.25
2019-05-06T18:18:52.360Z,17.15
2019-05-06T18:21:22.941Z,12.40
2019-05-06T18:23:53.157Z,11.97
2019-05-06T18:26:22.957Z,12.77
2019-05-06T18:28:53.377Z,18.45
2019-05-06T18:31:22.190Z,11.77
2019-05-06T18:33:52.750Z,14.27
2019-05-06T18:36:22.845Z,16.17
2019-05-06T18:38:52.522Z,16.62
2019-05-06T18:41:23.611Z,19.50
2019-05-06T18:43:53.763Z,19.07
2019-05-06T18:46:22.483Z,24.43
2019-05-06T18:48:52.400Z,13.38
2019-05-06T18:51:22.311Z,17.60
2019-05-06T18:53:52.454Z,17.37
2019-05-06T18:56:22.357Z,22.70
2019-05-06T18:58:53.100Z,21.57
2019-05-06T19:01:23.308Z,15.72
2019-05-06T19:03:57.809Z,20.12
2019-05-06T19:06:26.391Z,12.98
2019-05-06T19:08:59.582Z,13.30
2019-05-06T19:11:28.411Z,15.93
2019-05-06T19:13:57.562Z,17.37
2019-05-06T19:16:26.453Z,11.78
2019-05-06T19:18:55.033Z,15.30
2019-05-06T19:21:24.514Z,16.77
2019-05-06T19:23:54.823Z,14.93
2019-05-06T19:26:23.848Z,14.03
2019-05-06T19:28:52.742Z,14.13
2019-05-06T19:31:22.836Z,18.07
2019-05-06T19:33:53.577Z,15.05
2019-05-06T19:36:24.241Z,13.13
2019-05-06T19:38:53.124Z,18.37
2019-05-06T19:41:22.372Z,14.95
2019-05-06T19:43:52.632Z,15.48
2019-05-06T19:46:21.421Z,16.27
2019-05-06T19:48:52.276Z,16.10
2019-05-06T19:51:22.549Z,18.93
2019-05-06T19:53:51.057Z,16.65
2019-05-06T19:56:19.743Z,17.20
2019-05-06T19:58:49.671Z,18.20
2019-05-06T20:01:18.583Z,15.87
2019-05-06T20:03:47.356Z,18.20
2019-05-06T20:06:22.605Z,16.73
2019-05-06T20:11:42.575Z,13.88
2019-05-06T20:14:13.527Z,18.33
2019-05-06T20:16:42.171Z,14.33
2019-05-06T20:19:12.823Z,18.17
2019-05-06T20:21:42.383Z,15.25
2019-05-06T20:24:12.818Z,16.73
2019-05-06T20:26:43.088Z,13.85
2019-05-06T20:29:11.859Z,20.27
2019-05-06T20:31:42.729Z,13.17
2019-05-06T20:34:12.839Z,18.10
2019-05-06T20:36:42.928Z,19.73
2019-05-06T20:39:12.212Z,18.90
2019-05-06T20:41:42.491Z,20.60
2019-05-06T20:44:12.388Z,14.00
2019-05-06T20:46:42.914Z,16.97
2019-05-06T20:49:13.188Z,18.17
2019-05-06T20:51:42.500Z,13.33
2019-05-06T20:54:12.951Z,20.12
2019-05-06T20:56:42.207Z,18.92
2019-05-06T20:59:12.277Z,19.93
2019-05-06T21:01:42.591Z,22.32
2019-05-06T21:04:13.037Z,26.10
2019-05-06T21:06:42.710Z,24.60
2019-05-06T21:09:12.611Z,27.13
2019-05-06T21:11:42.251Z,27.27
2019-05-06T21:14:13.243Z,24.23
2019-05-06T21:16:42.298Z,26.02
2019-05-06T21:19:12.617Z,23.40
2019-05-06T21:21:43.226Z,21.23
2019-05-06T21:24:12.982Z,21.90
2019-05-06T21:26:46.273Z,21.47
2019-05-06T21:29:13.565Z,26.93
2019-05-06T21:31:42.458Z,22.77
2019-05-06T21:34:12.813Z,21.70
2019-05-06T21:36:42.206Z,24.45
2019-05-06T21:39:13.063Z,20.20
2019-05-06T21:41:42.768Z,16.00
2019-05-06T21:44:13.237Z,25.15
2019-05-06T21:46:42.871Z,26.65
2019-05-06T21:49:12.260Z,25.77
2019-05-06T21:51:42.485Z,31.87
2019-05-06T21:54:12.617Z,24.53
2019-05-06T21:56:42.407Z,29.80
2019-05-06T21:59:12.902Z,27.07
2019-05-06T22:01:43.554Z,27.23
2019-05-06T22:04:12.950Z,24.77
2019-05-06T22:06:45.571Z,27.65
2019-05-06T22:09:13.499Z,27.17
2019-05-06T22:11:42.523Z,37.48
2019-05-06T22:14:12.286Z,33.97
2019-05-06T22:16:43.504Z,38.15
2019-05-06T22:19:12.059Z,42.50
2019-05-06T22:21:57.728Z,39.77
2019-05-06T22:24:28.246Z,30.13
2019-05-06T22:26:57.133Z,25.13
2019-05-06T22:29:25.817Z,19.30
2019-05-06T22:31:54.391Z,17.30
2019-05-06T22:34:23.290Z,20.77
2019-05-06T22:36:54.173Z,18.70
2019-05-06T22:39:22.926Z,18.55
2019-05-06T22:41:52.127Z,23.67
2019-05-06T22:44:22.810Z,21.85
2019-05-06T22:46:51.539Z,17.73
2019-05-06T22:49:22.372Z,20.83
2019-05-06T22:51:52.167Z,21.95
2019-05-06T22:54:24.314Z,20.50
2019-05-06T22:56:52.391Z,21.83
2019-05-06T22:59:24.409Z,20.27
2019-05-06T23:01:54.787Z,30.80
2019-05-06T23:04:25.027Z,27.00
2019-05-06T23:06:53.523Z,24.30
2019-05-06T23:09:24.535Z,21.73
2019-05-06T23:11:52.469Z,32.10
2019-05-06T23:14:31.076Z,32.42
2019-05-06T23:16:53.326Z,34.55
2019-05-06T23:19:24.264Z,27.83
2019-05-06T23:21:53.301Z,29.15
2019-05-06T23:24:22.579Z,18.60
2019-05-06T23:26:52.749Z,23.80
2019-05-06T23:29:22.452Z,18.43
2019-05-06T23:31:52.131Z,23.53
2019-05-06T23:34:22.956Z,20.47
2019-05-06T23:36:58.900Z,22.03
2019-05-06T23:39:57.793Z,22.55
2019-05-06T23:42:44.907Z,24.53
2019-05-06T23:45:32.463Z,26.93
2019-05-06T23:48:19.775Z,31.57
2019-05-06T23:51:07.692Z,31.30
2019-05-06T23:53:54.500Z,32.70
2019-05-06T23:56:39.072Z,32.70
2019-05-06T23:59:08.662Z,20.23
